sensor_id;sensor_type;location;lat;lon;timestamp;pressure;altitude;pressure_sealevel;temperature;humidity
70133;BME280;57495;49.922;7.966;2022-09-03T00:01:05;99521.25;;;18.42;43.13
70133;BME280;57495;49.922;7.966;2022-09-03T00:03:13;99517.91;;;18.40;43.19
70133;BME280;57495;49.922;7.966;2022-09-03T00:05:22;99518.31;;;18.50;43.11
70133;BME280;57495;49.922;7.966;2022-09-03T00:07:31;99515.84;;;18.42;43.30
70133;BME280;57495;49.922;7.966;2022-09-03T00:09:38;99512.06;;;18.43;43.38
70133;BME280;57495;49.922;7.966;2022-09-03T00:11:48;99514.56;;;18.38;43.22
70133;BME280;57495;49.922;7.966;2022-09-03T00:13:56;99514.56;;;18.38;43.42
70133;BME280;57495;49.922;7.966;2022-09-03T00:15:59;99514.13;;;18.34;43.43
70133;BME280;57495;49.922;7.966;2022-09-03T00:18:06;99507.66;;;18.28;43.60
70133;BME280;57495;49.922;7.966;2022-09-03T00:20:12;99513.31;;;18.27;43.65
70133;BME280;57495;49.922;7.966;2022-09-03T00:22:18;99512.44;;;18.26;43.44
70133;BME280;57495;49.922;7.966;2022-09-03T00:24:25;99514.13;;;18.27;43.44
70133;BME280;57495;49.922;7.966;2022-09-03T00:26:32;99516.22;;;18.25;43.54
70133;BME280;57495;49.922;7.966;2022-09-03T00:28:41;99518.69;;;18.20;43.83
70133;BME280;57495;49.922;7.966;2022-09-03T00:30:51;99514.53;;;18.18;43.92
70133;BME280;57495;49.922;7.966;2022-09-03T00:32:59;99508.28;;;18.24;44.02
70133;BME280;57495;49.922;7.966;2022-09-03T00:35:10;99508.72;;;18.14;43.89
70133;BME280;57495;49.922;7.966;2022-09-03T00:37:16;99509.94;;;18.11;44.20
70133;BME280;57495;49.922;7.966;2022-09-03T00:39:19;99512.44;;;18.13;44.30
70133;BME280;57495;49.922;7.966;2022-09-03T00:41:27;99512.84;;;18.10;44.22
70133;BME280;57495;49.922;7.966;2022-09-03T00:43:45;99503.47;;;18.06;44.21
70133;BME280;57495;49.922;7.966;2022-09-03T00:45:57;99506.59;;;18.03;44.35
70133;BME280;57495;49.922;7.966;2022-09-03T00:48:15;99499.09;;;18.05;44.52
70133;BME280;57495;49.922;7.966;2022-09-03T00:50:31;99503.22;;;18.01;44.43
70133;BME280;57495;49.922;7.966;2022-09-03T00:52:43;99511.56;;;17.92;44.71
70133;BME280;57495;49.922;7.966;2022-09-03T00:54:54;99509.41;;;17.81;45.14
70133;BME280;57495;49.922;7.966;2022-09-03T00:57:09;99507.72;;;17.80;45.02
70133;BME280;57495;49.922;7.966;2022-09-03T00:59:27;99509.00;;;17.84;45.43
70133;BME280;57495;49.922;7.966;2022-09-03T01:01:35;99504.00;;;17.81;45.29
70133;BME280;57495;49.922;7.966;2022-09-03T01:03:46;99509.75;;;17.65;45.58
70133;BME280;57495;49.922;7.966;2022-09-03T01:06:12;99503.53;;;17.71;45.40
70133;BME280;57495;49.922;7.966;2022-09-03T01:08:40;99504.78;;;17.68;45.51
70133;BME280;57495;49.922;7.966;2022-09-03T01:10:56;99507.50;;;17.75;45.49
70133;BME280;57495;49.922;7.966;2022-09-03T01:13:06;99511.88;;;17.76;45.45
70133;BME280;57495;49.922;7.966;2022-09-03T01:15:14;99509.78;;;17.71;45.81
70133;BME280;57495;49.922;7.966;2022-09-03T01:17:31;99510.22;;;17.75;45.72
70133;BME280;57495;49.922;7.966;2022-09-03T01:19:57;99506.84;;;17.73;45.68
70133;BME280;57495;49.922;7.966;2022-09-03T01:22:18;99506.84;;;17.73;45.65
70133;BME280;57495;49.922;7.966;2022-09-03T01:24:43;99506.06;;;17.79;45.49
70133;BME280;57495;49.922;7.966;2022-09-03T01:26:59;99501.91;;;17.83;45.74
70133;BME280;57495;49.922;7.966;2022-09-03T01:29:12;99493.75;;;17.76;46.10
70133;BME280;57495;49.922;7.966;2022-09-03T01:31:24;99509.44;;;17.88;45.59
70133;BME280;57495;49.922;7.966;2022-09-03T01:33:34;99504.06;;;17.94;45.17
70133;BME280;57495;49.922;7.966;2022-09-03T01:35:44;99515.69;;;17.88;45.63
70133;BME280;57495;49.922;7.966;2022-09-03T01:37:56;99506.13;;;17.92;45.37
70133;BME280;57495;49.922;7.966;2022-09-03T01:40:06;99509.78;;;17.78;45.80
70133;BME280;57495;49.922;7.966;2022-09-03T01:42:17;99510.03;;;17.83;45.83
70133;BME280;57495;49.922;7.966;2022-09-03T01:44:31;99509.88;;;17.91;45.75
70133;BME280;57495;49.922;7.966;2022-09-03T01:46:40;99501.91;;;17.83;45.55
70133;BME280;57495;49.922;7.966;2022-09-03T01:48:50;99502.41;;;17.93;45.45
70133;BME280;57495;49.922;7.966;2022-09-03T01:50:57;99508.81;;;17.86;45.93
70133;BME280;57495;49.922;7.966;2022-09-03T01:53:06;99509.50;;;18.01;45.46
70133;BME280;57495;49.922;7.966;2022-09-03T01:55:23;99506.59;;;18.03;45.27
70133;BME280;57495;49.922;7.966;2022-09-03T01:57:48;99505.75;;;18.02;45.36
70133;BME280;57495;49.922;7.966;2022-09-03T01:59:57;99513.44;;;17.99;45.34
70133;BME280;57495;49.922;7.966;2022-09-03T02:02:02;99505.75;;;17.95;45.67
70133;BME280;57495;49.922;7.966;2022-09-03T02:04:14;99506.38;;;17.98;45.95
70133;BME280;57495;49.922;7.966;2022-09-03T02:06:17;99506.38;;;17.98;45.97
70133;BME280;57495;49.922;7.966;2022-09-03T02:08:20;99497.63;;;18.02;45.73
70133;BME280;57495;49.922;7.966;2022-09-03T02:10:24;99508.25;;;18.04;45.55
70133;BME280;57495;49.922;7.966;2022-09-03T02:12:30;99509.25;;;17.89;45.69
70133;BME280;57495;49.922;7.966;2022-09-03T02:14:34;99509.66;;;17.93;45.82
70133;BME280;57495;49.922;7.966;2022-09-03T02:16:37;99502.81;;;17.90;46.12
70133;BME280;57495;49.922;7.966;2022-09-03T02:18:41;99513.63;;;17.90;46.56
70133;BME280;57495;49.922;7.966;2022-09-03T02:20:46;99515.13;;;18.00;46.62
70133;BME280;57495;49.922;7.966;2022-09-03T02:22:49;99512.81;;;17.96;46.65
70133;BME280;57495;49.922;7.966;2022-09-03T02:24:53;99509.50;;;18.08;46.64
70133;BME280;57495;49.922;7.966;2022-09-03T02:26:55;99507.81;;;18.00;46.97
70133;BME280;57495;49.922;7.966;2022-09-03T02:28:57;99503.66;;;17.98;46.46
70133;BME280;57495;49.922;7.966;2022-09-03T02:30:59;99503.22;;;18.01;46.48
70133;BME280;57495;49.922;7.966;2022-09-03T02:33:02;99498.25;;;17.98;46.03
70133;BME280;57495;49.922;7.966;2022-09-03T02:35:04;99500.34;;;17.95;46.09
70133;BME280;57495;49.922;7.966;2022-09-03T02:37:11;99500.53;;;18.01;46.12
70133;BME280;57495;49.922;7.966;2022-09-03T02:39:14;99507.81;;;18.00;46.21
70133;BME280;57495;49.922;7.966;2022-09-03T02:41:16;99509.47;;;17.94;46.42
70133;BME280;57495;49.922;7.966;2022-09-03T02:43:19;99511.16;;;17.95;46.14
70133;BME280;57495;49.922;7.966;2022-09-03T02:45:26;99509.69;;;18.00;46.35
70133;BME280;57495;49.922;7.966;2022-09-03T02:47:30;99505.50;;;17.97;46.15
70133;BME280;57495;49.922;7.966;2022-09-03T02:49:34;99509.47;;;17.94;45.92
70133;BME280;57495;49.922;7.966;2022-09-03T02:51:37;99515.50;;;17.96;46.32
70133;BME280;57495;49.922;7.966;2022-09-03T02:53:39;99512.81;;;17.96;46.49
70133;BME280;57495;49.922;7.966;2022-09-03T02:55:41;99510.28;;;17.88;46.47
70133;BME280;57495;49.922;7.966;2022-09-03T02:57:42;99511.56;;;17.92;46.23
70133;BME280;57495;49.922;7.966;2022-09-03T02:59:44;99518.84;;;17.92;46.33
70133;BME280;57495;49.922;7.966;2022-09-03T03:01:45;99506.16;;;18.06;46.05
70133;BME280;57495;49.922;7.966;2022-09-03T03:03:46;99512.09;;;17.81;46.87
70133;BME280;57495;49.922;7.966;2022-09-03T03:05:51;99515.84;;;17.80;46.87
70133;BME280;57495;49.922;7.966;2022-09-03T03:07:54;99512.19;;;17.94;46.33
70133;BME280;57495;49.922;7.966;2022-09-03T03:09:57;99518.22;;;17.96;46.24
70133;BME280;57495;49.922;7.966;2022-09-03T03:11:59;99520.28;;;17.94;46.57
70133;BME280;57495;49.922;7.966;2022-09-03T03:14:01;99509.69;;;18.00;46.40
70133;BME280;57495;49.922;7.966;2022-09-03T03:16:04;99503.06;;;18.09;45.92
70133;BME280;57495;49.922;7.966;2022-09-03T03:18:07;99505.53;;;18.04;46.45
70133;BME280;57495;49.922;7.966;2022-09-03T03:20:11;99507.16;;;17.91;46.65
70133;BME280;57495;49.922;7.966;2022-09-03T03:22:13;99505.75;;;17.95;46.46
70133;BME280;57495;49.922;7.966;2022-09-03T03:24:15;99498.69;;;18.01;46.61
70133;BME280;57495;49.922;7.966;2022-09-03T03:26:19;99497.63;;;17.95;46.56
70133;BME280;57495;49.922;7.966;2022-09-03T03:28:20;99497.19;;;17.92;46.65
70133;BME280;57495;49.922;7.966;2022-09-03T03:30:22;99500.09;;;17.90;47.16
70133;BME280;57495;49.922;7.966;2022-09-03T03:32:23;99503.19;;;17.87;47.05
70133;BME280;57495;49.922;7.966;2022-09-03T03:34:24;99498.59;;;17.81;47.29
70133;BME280;57495;49.922;7.966;2022-09-03T03:36:28;99504.19;;;17.80;47.37
70133;BME280;57495;49.922;7.966;2022-09-03T03:38:31;99499.59;;;17.80;47.06
70133;BME280;57495;49.922;7.966;2022-09-03T03:40:32;99500.63;;;17.66;47.46
70133;BME280;57495;49.922;7.966;2022-09-03T03:42:34;99496.69;;;17.75;47.19
70133;BME280;57495;49.922;7.966;2022-09-03T03:44:36;99499.75;;;17.58;47.81
70133;BME280;57495;49.922;7.966;2022-09-03T03:46:38;99498.88;;;17.51;48.17
70133;BME280;57495;49.922;7.966;2022-09-03T03:48:40;99496.28;;;17.30;48.57
70133;BME280;57495;49.922;7.966;2022-09-03T03:50:41;99507.38;;;17.48;48.18
70133;BME280;57495;49.922;7.966;2022-09-03T03:52:43;99499.75;;;17.58;48.03
70133;BME280;57495;49.922;7.966;2022-09-03T03:54:46;99505.75;;;17.54;48.06
70133;BME280;57495;49.922;7.966;2022-09-03T03:56:49;99503.72;;;17.63;47.77
70133;BME280;57495;49.922;7.966;2022-09-03T03:58:51;99507.63;;;17.53;48.45
70133;BME280;57495;49.922;7.966;2022-09-03T04:00:52;99505.78;;;17.61;48.28
70133;BME280;57495;49.922;7.966;2022-09-03T04:02:54;99501.81;;;17.56;48.28
70133;BME280;57495;49.922;7.966;2022-09-03T04:04:55;99508.50;;;17.61;48.08
70133;BME280;57495;49.922;7.966;2022-09-03T04:06:57;99504.22;;;17.38;48.75
70133;BME280;57495;49.922;7.966;2022-09-03T04:08:58;99504.47;;;17.50;48.42
70133;BME280;57495;49.922;7.966;2022-09-03T04:11:02;99502.59;;;17.50;48.70
70133;BME280;57495;49.922;7.966;2022-09-03T04:13:04;99501.41;;;17.59;48.43
70133;BME280;57495;49.922;7.966;2022-09-03T04:15:05;99501.41;;;17.59;48.38
70133;BME280;57495;49.922;7.966;2022-09-03T04:17:07;99498.00;;;17.44;48.61
70133;BME280;57495;49.922;7.966;2022-09-03T04:19:08;99497.25;;;17.64;48.28
70133;BME280;57495;49.922;7.966;2022-09-03T04:21:12;99495.38;;;17.57;48.43
70133;BME280;57495;49.922;7.966;2022-09-03T04:23:13;99490.63;;;17.66;48.18
70133;BME280;57495;49.922;7.966;2022-09-03T04:25:15;99493.53;;;17.65;48.23
70133;BME280;57495;49.922;7.966;2022-09-03T04:27:18;99490.59;;;17.59;48.43
70133;BME280;57495;49.922;7.966;2022-09-03T04:29:19;99492.41;;;17.52;48.80
70133;BME280;57495;49.922;7.966;2022-09-03T04:31:22;99493.44;;;17.45;48.91
70133;BME280;57495;49.922;7.966;2022-09-03T04:33:23;99491.78;;;17.50;48.93
70133;BME280;57495;49.922;7.966;2022-09-03T04:35:25;99498.66;;;17.46;48.88
70133;BME280;57495;49.922;7.966;2022-09-03T04:37:32;99502.97;;;17.41;49.16
70133;BME280;57495;49.922;7.966;2022-09-03T04:39:34;99504.72;;;17.55;48.61
70133;BME280;57495;49.922;7.966;2022-09-03T04:41:35;99510.75;;;17.57;48.90
70133;BME280;57495;49.922;7.966;2022-09-03T04:43:38;99512.22;;;17.59;48.88
70133;BME280;57495;49.922;7.966;2022-09-03T04:45:41;99518.88;;;17.64;48.58
70133;BME280;57495;49.922;7.966;2022-09-03T04:47:43;99512.22;;;17.59;48.72
70133;BME280;57495;49.922;7.966;2022-09-03T04:49:45;99524.53;;;17.62;49.01
70133;BME280;57495;49.922;7.966;2022-09-03T04:51:47;99511.59;;;17.57;49.17
70133;BME280;57495;49.922;7.966;2022-09-03T04:53:53;99517.63;;;17.59;48.85
70133;BME280;57495;49.922;7.966;2022-09-03T04:55:56;99524.28;;;17.57;49.13
70133;BME280;57495;49.922;7.966;2022-09-03T04:57:57;99525.97;;;17.65;48.82
70133;BME280;57495;49.922;7.966;2022-09-03T05:00:00;99526.22;;;17.70;48.66
70133;BME280;57495;49.922;7.966;2022-09-03T05:02:02;99523.91;;;17.67;48.98
70133;BME280;57495;49.922;7.966;2022-09-03T05:04:04;99538.88;;;17.63;49.06
70133;BME280;57495;49.922;7.966;2022-09-03T05:06:06;99527.63;;;17.59;49.50
70133;BME280;57495;49.922;7.966;2022-09-03T05:08:08;99533.84;;;17.59;49.76
70133;BME280;57495;49.922;7.966;2022-09-03T05:10:12;99537.22;;;17.68;49.83
70133;BME280;57495;49.922;7.966;2022-09-03T05:12:19;99535.91;;;17.57;49.57
70133;BME280;57495;49.922;7.966;2022-09-03T05:14:22;99534.03;;;17.51;49.66
70133;BME280;57495;49.922;7.966;2022-09-03T05:16:26;99541.38;;;17.71;49.58
70133;BME280;57495;49.922;7.966;2022-09-03T05:18:29;99542.19;;;17.65;49.50
70133;BME280;57495;49.922;7.966;2022-09-03T05:20:30;99536.84;;;17.71;49.65
70133;BME280;57495;49.922;7.966;2022-09-03T05:22:32;99544.72;;;17.73;50.21
70133;BME280;57495;49.922;7.966;2022-09-03T05:24:34;99538.88;;;17.63;50.45
70133;BME280;57495;49.922;7.966;2022-09-03T05:26:36;99558.22;;;17.66;52.83
70133;BME280;57495;49.922;7.966;2022-09-03T05:28:40;99552.97;;;17.58;53.76
70133;BME280;57495;49.922;7.966;2022-09-03T05:30:42;99567.34;;;17.58;56.30
70133;BME280;57495;49.922;7.966;2022-09-03T05:32:44;99569.19;;;17.51;55.57
70133;BME280;57495;49.922;7.966;2022-09-03T05:34:46;99569.19;;;17.51;57.56
70133;BME280;57495;49.922;7.966;2022-09-03T05:36:47;99574.09;;;17.41;56.50
70133;BME280;57495;49.922;7.966;2022-09-03T05:38:49;99576.16;;;17.39;61.51
70133;BME280;57495;49.922;7.966;2022-09-03T05:40:53;99576.13;;;17.32;62.90
70133;BME280;57495;49.922;7.966;2022-09-03T05:42:55;99577.66;;;17.13;63.05
70133;BME280;57495;49.922;7.966;2022-09-03T05:44:58;99577.75;;;16.98;60.64
70133;BME280;57495;49.922;7.966;2022-09-03T05:46:59;99569.31;;;17.08;61.80
70133;BME280;57495;49.922;7.966;2022-09-03T05:49:04;99582.06;;;16.93;64.36
70133;BME280;57495;49.922;7.966;2022-09-03T05:51:07;99572.66;;;17.10;65.13
70133;BME280;57495;49.922;7.966;2022-09-03T05:53:09;99569.53;;;17.13;66.34
70133;BME280;57495;49.922;7.966;2022-09-03T05:55:10;99568.72;;;17.13;65.90
70133;BME280;57495;49.922;7.966;2022-09-03T05:57:12;99579.53;;;16.91;65.94
70133;BME280;57495;49.922;7.966;2022-09-03T05:59:13;99578.63;;;17.06;64.34
70133;BME280;57495;49.922;7.966;2022-09-03T06:01:16;99580.97;;;17.15;65.23
70133;BME280;57495;49.922;7.966;2022-09-03T06:03:18;99583.69;;;17.15;65.01
70133;BME280;57495;49.922;7.966;2022-09-03T06:05:21;99578.53;;;17.20;64.11
70133;BME280;57495;49.922;7.966;2022-09-03T06:07:23;99583.13;;;17.27;63.15
70133;BME280;57495;49.922;7.966;2022-09-03T06:09:26;99584.56;;;17.23;63.21
70133;BME280;57495;49.922;7.966;2022-09-03T06:11:28;99584.31;;;17.17;63.36
70133;BME280;57495;49.922;7.966;2022-09-03T06:13:33;99585.41;;;16.95;64.63
70133;BME280;57495;49.922;7.966;2022-09-03T06:15:34;99582.22;;;16.85;63.49
70133;BME280;57495;49.922;7.966;2022-09-03T06:17:36;99584.75;;;17.14;65.46
70133;BME280;57495;49.922;7.966;2022-09-03T06:19:38;99586.16;;;17.10;64.82
70133;BME280;57495;49.922;7.966;2022-09-03T06:21:42;99589.59;;;16.97;63.29
70133;BME280;57495;49.922;7.966;2022-09-03T06:23:48;99582.94;;;17.00;64.91
70133;BME280;57495;49.922;7.966;2022-09-03T06:25:59;99584.44;;;16.81;68.64
70133;BME280;57495;49.922;7.966;2022-09-03T06:28:00;99580.69;;;16.82;70.01
70133;BME280;57495;49.922;7.966;2022-09-03T06:30:03;99572.31;;;16.92;70.45
70133;BME280;57495;49.922;7.966;2022-09-03T06:32:06;99571.25;;;16.93;69.25
70133;BME280;57495;49.922;7.966;2022-09-03T06:34:07;99569.06;;;16.81;70.02
70133;BME280;57495;49.922;7.966;2022-09-03T06:36:11;99571.06;;;16.73;71.50
70133;BME280;57495;49.922;7.966;2022-09-03T06:38:14;99568.56;;;16.71;71.79
70133;BME280;57495;49.922;7.966;2022-09-03T06:40:17;99558.97;;;16.69;70.90
70133;BME280;57495;49.922;7.966;2022-09-03T06:42:21;99562.66;;;16.61;71.20
70133;BME280;57495;49.922;7.966;2022-09-03T06:44:23;99558.41;;;16.52;71.67
70133;BME280;57495;49.922;7.966;2022-09-03T06:46:24;99565.53;;;16.59;71.09
70133;BME280;57495;49.922;7.966;2022-09-03T06:48:27;99567.03;;;16.62;71.19
70133;BME280;57495;49.922;7.966;2022-09-03T06:50:29;99565.09;;;16.56;72.14
70133;BME280;57495;49.922;7.966;2022-09-03T06:52:31;99564.69;;;16.59;72.76
70133;BME280;57495;49.922;7.966;2022-09-03T06:54:34;99565.91;;;16.56;72.46
70133;BME280;57495;49.922;7.966;2022-09-03T06:56:37;99574.47;;;16.60;72.15
70133;BME280;57495;49.922;7.966;2022-09-03T06:58:40;99587.66;;;16.48;73.56
70133;BME280;57495;49.922;7.966;2022-09-03T07:00:43;99589.69;;;16.46;74.33
70133;BME280;57495;49.922;7.966;2022-09-03T07:02:44;99595.25;;;16.23;76.21
70133;BME280;57495;49.922;7.966;2022-09-03T07:04:47;99598.75;;;16.38;74.53
70133;BME280;57495;49.922;7.966;2022-09-03T07:06:49;99604.16;;;16.38;75.37
70133;BME280;57495;49.922;7.966;2022-09-03T07:08:51;99608.78;;;16.45;73.03
70133;BME280;57495;49.922;7.966;2022-09-03T07:10:53;99611.53;;;16.30;74.85
70133;BME280;57495;49.922;7.966;2022-09-03T07:12:55;99607.44;;;16.19;76.46
70133;BME280;57495;49.922;7.966;2022-09-03T07:14:56;99603.75;;;16.41;76.80
70133;BME280;57495;49.922;7.966;2022-09-03T07:16:58;99610.19;;;16.40;72.18
70133;BME280;57495;49.922;7.966;2022-09-03T07:19:00;99609.50;;;16.53;72.14
70133;BME280;57495;49.922;7.966;2022-09-03T07:21:04;99604.84;;;16.47;74.41
70133;BME280;57495;49.922;7.966;2022-09-03T07:23:06;99606.22;;;16.58;72.74
70133;BME280;57495;49.922;7.966;2022-09-03T07:25:08;99606.22;;;16.58;71.19
70133;BME280;57495;49.922;7.966;2022-09-03T07:27:10;99612.72;;;16.42;68.68
70133;BME280;57495;49.922;7.966;2022-09-03T07:29:12;99615.72;;;16.54;70.34
70133;BME280;57495;49.922;7.966;2022-09-03T07:31:17;99610.16;;;16.55;72.04
70133;BME280;57495;49.922;7.966;2022-09-03T07:33:20;99611.25;;;16.61;73.78
70133;BME280;57495;49.922;7.966;2022-09-03T07:35:21;99610.66;;;16.66;74.39
70133;BME280;57495;49.922;7.966;2022-09-03T07:37:24;99610.28;;;16.69;75.64
70133;BME280;57495;49.922;7.966;2022-09-03T07:39:26;99600.97;;;16.71;73.79
70133;BME280;57495;49.922;7.966;2022-09-03T07:41:28;99597.50;;;16.77;76.42
70133;BME280;57495;49.922;7.966;2022-09-03T07:43:35;99598.41;;;16.85;75.85
70133;BME280;57495;49.922;7.966;2022-09-03T07:45:39;99598.69;;;16.90;76.43
70133;BME280;57495;49.922;7.966;2022-09-03T07:47:45;99595.19;;;16.96;76.09
70133;BME280;57495;49.922;7.966;2022-09-03T07:49:47;99592.53;;;17.03;74.77
70133;BME280;57495;49.922;7.966;2022-09-03T07:51:49;99590.69;;;17.03;75.92
70133;BME280;57495;49.922;7.966;2022-09-03T07:53:54;99586.16;;;17.10;73.69
70133;BME280;57495;49.922;7.966;2022-09-03T07:56:00;99579.69;;;17.05;75.15
70133;BME280;57495;49.922;7.966;2022-09-03T07:58:02;99585.03;;;16.98;74.28
70133;BME280;57495;49.922;7.966;2022-09-03T08:00:06;99592.59;;;16.88;74.97
70133;BME280;57495;49.922;7.966;2022-09-03T08:02:08;99593.94;;;16.98;76.06
70133;BME280;57495;49.922;7.966;2022-09-03T08:04:09;99607.69;;;16.82;76.16
70133;BME280;57495;49.922;7.966;2022-09-03T08:06:11;99617.97;;;16.50;76.40
70133;BME280;57495;49.922;7.966;2022-09-03T08:08:13;99615.72;;;16.54;76.95
70133;BME280;57495;49.922;7.966;2022-09-03T08:10:15;99614.88;;;16.90;75.24
70133;BME280;57495;49.922;7.966;2022-09-03T08:12:16;99617.44;;;16.98;72.58
70133;BME280;57495;49.922;7.966;2022-09-03T08:14:18;99618.44;;;16.97;75.10
70133;BME280;57495;49.922;7.966;2022-09-03T08:16:20;99623.34;;;17.08;72.58
70133;BME280;57495;49.922;7.966;2022-09-03T08:18:22;99625.91;;;17.16;74.67
70133;BME280;57495;49.922;7.966;2022-09-03T08:20:23;99631.84;;;17.05;73.69
70133;BME280;57495;49.922;7.966;2022-09-03T08:22:25;99632.22;;;17.02;74.64
70133;BME280;57495;49.922;7.966;2022-09-03T08:24:27;99638.53;;;17.09;75.40
70133;BME280;57495;49.922;7.966;2022-09-03T08:26:29;99646.19;;;16.48;77.42
70133;BME280;57495;49.922;7.966;2022-09-03T08:28:31;99653.25;;;16.49;77.48
70133;BME280;57495;49.922;7.966;2022-09-03T08:30:33;99642.41;;;16.63;77.32
70133;BME280;57495;49.922;7.966;2022-09-03T08:32:37;99633.78;;;16.75;75.04
70133;BME280;57495;49.922;7.966;2022-09-03T08:34:39;99657.13;;;16.61;75.38
70133;BME280;57495;49.922;7.966;2022-09-03T08:36:40;99664.47;;;16.67;76.82
70133;BME280;57495;49.922;7.966;2022-09-03T08:38:43;99658.97;;;16.75;75.27
70133;BME280;57495;49.922;7.966;2022-09-03T08:40:45;99647.66;;;16.87;73.34
70133;BME280;57495;49.922;7.966;2022-09-03T08:42:57;99658.16;;;16.96;73.67
70133;BME280;57495;49.922;7.966;2022-09-03T08:45:06;99655.06;;;16.99;74.36
70133;BME280;57495;49.922;7.966;2022-09-03T08:47:11;99643.38;;;17.20;74.72
70133;BME280;57495;49.922;7.966;2022-09-03T08:49:20;99664.22;;;17.27;73.55
70133;BME280;57495;49.922;7.966;2022-09-03T08:51:24;99664.22;;;17.27;74.67
70133;BME280;57495;49.922;7.966;2022-09-03T08:53:30;99674.91;;;17.35;73.39
70133;BME280;57495;49.922;7.966;2022-09-03T08:55:38;99668.97;;;17.46;73.20
70133;BME280;57495;49.922;7.966;2022-09-03T08:57:46;99668.22;;;17.59;71.43
70133;BME280;57495;49.922;7.966;2022-09-03T08:59:52;99662.19;;;17.85;71.87
70133;BME280;57495;49.922;7.966;2022-09-03T09:02:01;99654.59;;;18.57;69.84
70133;BME280;57495;49.922;7.966;2022-09-03T09:04:10;99657.59;;;19.02;67.98
70133;BME280;57495;49.922;7.966;2022-09-03T09:06:20;99661.81;;;19.18;67.75
70133;BME280;57495;49.922;7.966;2022-09-03T09:08:40;99664.72;;;19.43;67.46
70133;BME280;57495;49.922;7.966;2022-09-03T09:10:51;99663.03;;;19.82;67.57
70133;BME280;57495;49.922;7.966;2022-09-03T09:13:07;99664.19;;;20.13;65.06
70133;BME280;57495;49.922;7.966;2022-09-03T09:15:18;99670.38;;;20.34;65.11
70133;BME280;57495;49.922;7.966;2022-09-03T09:17:40;99661.53;;;20.45;63.75
70133;BME280;57495;49.922;7.966;2022-09-03T09:19:53;99664.03;;;20.53;64.88
70133;BME280;57495;49.922;7.966;2022-09-03T09:22:02;99662.00;;;20.42;63.69
70133;BME280;57495;49.922;7.966;2022-09-03T09:24:10;99657.19;;;20.44;63.59
70133;BME280;57495;49.922;7.966;2022-09-03T09:26:20;99663.22;;;20.46;64.38
70133;BME280;57495;49.922;7.966;2022-09-03T09:28:24;99661.94;;;20.62;62.66
70133;BME280;57495;49.922;7.966;2022-09-03T09:30:27;99655.69;;;20.93;61.48
70133;BME280;57495;49.922;7.966;2022-09-03T09:32:29;99656.09;;;20.90;63.41
70133;BME280;57495;49.922;7.966;2022-09-03T09:34:33;99659.88;;;20.89;64.88
70133;BME280;57495;49.922;7.966;2022-09-03T09:36:41;99662.75;;;20.62;64.13
70133;BME280;57495;49.922;7.966;2022-09-03T09:38:45;99663.38;;;20.96;62.32
70133;BME280;57495;49.922;7.966;2022-09-03T09:40:47;99659.63;;;20.97;63.11
70133;BME280;57495;49.922;7.966;2022-09-03T09:42:49;99659.78;;;21.28;61.17
70133;BME280;57495;49.922;7.966;2022-09-03T09:44:51;99663.50;;;21.33;61.89
70133;BME280;57495;49.922;7.966;2022-09-03T09:47:02;99661.25;;;20.66;64.61
70133;BME280;57495;49.922;7.966;2022-09-03T09:49:21;99661.94;;;21.19;62.24
70133;BME280;57495;49.922;7.966;2022-09-03T09:51:26;99658.50;;;21.30;63.09
70133;BME280;57495;49.922;7.966;2022-09-03T09:53:30;99664.47;;;20.89;64.66
70133;BME280;57495;49.922;7.966;2022-09-03T09:55:33;99672.31;;;20.72;65.00
70133;BME280;57495;49.922;7.966;2022-09-03T09:57:34;99664.16;;;20.72;65.82
70133;BME280;57495;49.922;7.966;2022-09-03T09:59:37;99677.19;;;20.56;65.21
70133;BME280;57495;49.922;7.966;2022-09-03T10:01:39;99678.78;;;20.19;66.81
70133;BME280;57495;49.922;7.966;2022-09-03T10:03:48;99670.28;;;20.08;66.29
70133;BME280;57495;49.922;7.966;2022-09-03T10:06:01;99672.66;;;19.38;70.20
70133;BME280;57495;49.922;7.966;2022-09-03T10:08:24;99665.97;;;19.67;69.83
70133;BME280;57495;49.922;7.966;2022-09-03T10:10:27;99665.34;;;19.59;68.70
70133;BME280;57495;49.922;7.966;2022-09-03T10:12:39;99668.06;;;19.79;68.28
70133;BME280;57495;49.922;7.966;2022-09-03T10:14:45;99667.63;;;19.75;69.56
70133;BME280;57495;49.922;7.966;2022-09-03T10:16:49;99668.84;;;19.93;68.36
70133;BME280;57495;49.922;7.966;2022-09-03T10:19:00;99671.81;;;19.71;70.62
70133;BME280;57495;49.922;7.966;2022-09-03T10:21:09;99664.66;;;20.03;69.30
70133;BME280;57495;49.922;7.966;2022-09-03T10:23:15;99668.47;;;19.56;69.93
70133;BME280;57495;49.922;7.966;2022-09-03T10:25:19;99670.53;;;19.94;69.36
70133;BME280;57495;49.922;7.966;2022-09-03T10:27:21;99667.34;;;20.03;68.55
70133;BME280;57495;49.922;7.966;2022-09-03T10:29:24;99662.13;;;20.02;69.58
70133;BME280;57495;49.922;7.966;2022-09-03T10:31:57;99662.19;;;19.82;69.21
70133;BME280;57495;49.922;7.966;2022-09-03T10:34:06;99671.75;;;20.04;69.38
70133;BME280;57495;49.922;7.966;2022-09-03T10:36:15;99662.47;;;20.32;69.09
70133;BME280;57495;49.922;7.966;2022-09-03T10:38:23;99665.88;;;20.14;68.83
70133;BME280;57495;49.922;7.966;2022-09-03T10:40:32;99667.28;;;20.23;68.61
70133;BME280;57495;49.922;7.966;2022-09-03T10:42:41;99669.88;;;20.05;68.26
70133;BME280;57495;49.922;7.966;2022-09-03T10:44:58;99663.28;;;20.33;68.82
70133;BME280;57495;49.922;7.966;2022-09-03T10:47:13;99662.00;;;20.35;71.63
70133;BME280;57495;49.922;7.966;2022-09-03T10:49:34;99657.78;;;20.46;69.95
70133;BME280;57495;49.922;7.966;2022-09-03T10:51:40;99656.44;;;20.69;69.96
70133;BME280;57495;49.922;7.966;2022-09-03T10:54:04;99650.75;;;20.77;68.40
70133;BME280;57495;49.922;7.966;2022-09-03T10:56:15;99648.63;;;21.11;68.49
70133;BME280;57495;49.922;7.966;2022-09-03T10:58:33;99646.75;;;21.36;68.63
70133;BME280;57495;49.922;7.966;2022-09-03T11:00:48;99642.91;;;21.51;68.41
70133;BME280;57495;49.922;7.966;2022-09-03T11:05:27;99631.13;;;20.75;67.96
70133;BME280;57495;49.922;7.966;2022-09-03T11:07:33;99634.59;;;20.82;69.54